createdAt,value
2023-03-19T00:01:57.177Z,1020.59
2023-03-19T00:04:24.024Z,1020.58
2023-03-19T00:06:50.978Z,1020.71
2023-03-19T00:09:19.911Z,1020.67
2023-03-19T00:11:47.202Z,1020.54
2023-03-19T00:14:14.308Z,1020.60
2023-03-19T00:16:41.128Z,1020.45
2023-03-19T00:19:08.043Z,1020.53
2023-03-19T00:21:34.773Z,1020.57
2023-03-19T00:24:01.645Z,1020.65
2023-03-19T00:26:30.783Z,1020.54
2023-03-19T00:28:58.833Z,1020.58
2023-03-19T00:31:27.402Z,1020.71
2023-03-19T00:33:54.472Z,1020.52
2023-03-19T00:36:21.228Z,1020.51
2023-03-19T00:38:47.932Z,1020.51
2023-03-19T00:41:14.877Z,1020.40
2023-03-19T00:43:42.998Z,1020.41
2023-03-19T00:46:09.851Z,1020.46
2023-03-19T00:48:36.617Z,1020.34
2023-03-19T00:51:04.008Z,1020.30
2023-03-19T00:53:30.921Z,1020.30
2023-03-19T00:55:57.647Z,1020.27
2023-03-19T00:58:24.759Z,1020.33
2023-03-19T01:00:54.664Z,1020.33
2023-03-19T01:03:21.674Z,1020.30
2023-03-19T01:08:15.604Z,1020.35
2023-03-19T01:10:42.377Z,1020.34
2023-03-19T01:13:09.228Z,1020.34
2023-03-19T01:15:36.693Z,1020.38
2023-03-19T01:18:05.305Z,1020.37
2023-03-19T01:20:32.434Z,1020.36
2023-03-19T01:22:59.531Z,1020.41
2023-03-19T01:25:26.309Z,1020.34
2023-03-19T01:27:53.524Z,1020.37
2023-03-19T01:30:20.498Z,1020.34
2023-03-19T01:32:47.466Z,1020.25
2023-03-19T01:35:15.799Z,1020.23
2023-03-19T01:37:42.582Z,1020.32
2023-03-19T01:40:12.361Z,1020.37
2023-03-19T01:42:52.104Z,1020.35
2023-03-19T01:45:35.545Z,1020.32
2023-03-19T01:48:02.463Z,1020.29
2023-03-19T01:50:38.776Z,1020.39
2023-03-19T01:53:06.500Z,1020.38
2023-03-19T01:55:33.330Z,1020.41
2023-03-19T01:58:00.889Z,1020.38
2023-03-19T02:00:28.512Z,1020.40
2023-03-19T02:03:00.718Z,1020.34
2023-03-19T02:05:28.220Z,1020.40
2023-03-19T02:07:59.578Z,1020.36
2023-03-19T02:10:26.979Z,1020.38
2023-03-19T02:12:53.807Z,1020.39
2023-03-19T02:15:20.641Z,1020.39
2023-03-19T02:17:47.972Z,1020.48
2023-03-19T02:20:21.242Z,1020.55
2023-03-19T02:22:55.096Z,1020.48
2023-03-19T02:25:30.268Z,1020.47
2023-03-19T02:27:59.232Z,1020.42
2023-03-19T02:30:28.681Z,1020.45
2023-03-19T02:32:55.922Z,1020.47
2023-03-19T02:35:22.686Z,1020.63
2023-03-19T02:37:49.491Z,1020.67
2023-03-19T02:40:21.805Z,1020.59
2023-03-19T02:42:48.661Z,1020.67
2023-03-19T02:45:17.342Z,1020.64
2023-03-19T02:47:44.184Z,1020.57
2023-03-19T02:50:11.225Z,1020.49
2023-03-19T02:52:37.974Z,1020.55
2023-03-19T02:55:05.600Z,1020.39
2023-03-19T02:57:32.433Z,1020.44
2023-03-19T02:59:59.196Z,1020.46
2023-03-19T03:02:27.509Z,1020.50
2023-03-19T03:04:54.255Z,1020.44
2023-03-19T03:07:21.086Z,1020.49
2023-03-19T03:09:47.928Z,1020.39
2023-03-19T03:12:15.213Z,1020.37
2023-03-19T03:14:41.985Z,1020.47
2023-03-19T03:17:09.058Z,1020.48
2023-03-19T03:19:37.284Z,1020.59
2023-03-19T03:22:04.244Z,1020.72
2023-03-19T03:24:31.310Z,1020.66
2023-03-19T03:26:58.070Z,1020.60
2023-03-19T03:29:24.902Z,1020.54
2023-03-19T03:31:51.833Z,1020.50
2023-03-19T03:34:18.836Z,1020.48
2023-03-19T03:36:48.302Z,1020.47
2023-03-19T03:39:15.200Z,1020.45
2023-03-19T03:41:41.933Z,1020.63
2023-03-19T03:44:08.671Z,1020.65
2023-03-19T03:46:35.447Z,1020.65
2023-03-19T03:49:02.328Z,1020.63
2023-03-19T03:51:29.156Z,1020.76
2023-03-19T03:53:57.347Z,1020.72
2023-03-19T03:56:24.062Z,1020.71
2023-03-19T03:58:50.871Z,1020.64
2023-03-19T04:01:18.634Z,1020.56
2023-03-19T04:03:45.655Z,1020.64
2023-03-19T04:06:16.407Z,1020.65
2023-03-19T04:08:43.214Z,1020.58
2023-03-19T04:11:11.702Z,1020.70
2023-03-19T04:13:38.542Z,1020.67
2023-03-19T04:16:06.118Z,1020.61
2023-03-19T04:18:32.934Z,1020.62
2023-03-19T04:20:59.832Z,1020.64
2023-03-19T04:23:26.599Z,1020.63
2023-03-19T04:25:53.461Z,1020.65
2023-03-19T04:28:21.656Z,1020.61
2023-03-19T04:30:48.595Z,1020.67
2023-03-19T04:33:15.490Z,1020.58
2023-03-19T04:35:42.375Z,1020.64
2023-03-19T04:38:09.173Z,1020.70
2023-03-19T04:40:36.171Z,1020.70
2023-03-19T04:43:03.176Z,1020.78
2023-03-19T04:45:31.305Z,1020.74
2023-03-19T04:47:58.083Z,1020.61
2023-03-19T04:50:24.894Z,1020.55
2023-03-19T04:52:51.697Z,1020.54
2023-03-19T04:55:18.605Z,1020.52
2023-03-19T04:57:45.877Z,1020.43
2023-03-19T05:00:13.642Z,1020.42
2023-03-19T05:02:42.027Z,1020.44
2023-03-19T05:05:10.015Z,1020.55
2023-03-19T05:07:36.943Z,1020.57
2023-03-19T05:10:04.355Z,1020.51
2023-03-19T05:12:31.108Z,1020.59
2023-03-19T05:14:58.024Z,1020.58
2023-03-19T05:17:24.790Z,1020.66
2023-03-19T05:19:53.009Z,1020.61
2023-03-19T05:22:20.264Z,1020.72
2023-03-19T05:24:47.125Z,1020.69
2023-03-19T05:27:13.948Z,1020.62
2023-03-19T05:29:41.044Z,1020.65
2023-03-19T05:32:08.337Z,1020.70
2023-03-19T05:34:35.300Z,1020.69
2023-03-19T05:37:03.621Z,1020.81
2023-03-19T05:39:30.369Z,1020.73
2023-03-19T05:41:57.141Z,1020.70
2023-03-19T05:44:23.897Z,1020.65
2023-03-19T05:46:50.869Z,1020.73
2023-03-19T05:49:17.692Z,1020.69
2023-03-19T05:51:44.513Z,1020.64
2023-03-19T05:54:12.634Z,1020.77
2023-03-19T05:56:39.493Z,1020.83
2023-03-19T05:59:06.252Z,1020.77
2023-03-19T06:01:33.035Z,1020.62
2023-03-19T06:03:59.857Z,1020.56
2023-03-19T06:06:26.663Z,1020.56
2023-03-19T06:08:53.393Z,1020.60
2023-03-19T06:11:21.534Z,1020.54
2023-03-19T06:13:48.258Z,1020.68
2023-03-19T06:16:14.998Z,1020.66
2023-03-19T06:18:41.726Z,1020.66
2023-03-19T06:21:08.622Z,1020.70
2023-03-19T06:23:35.641Z,1020.68
2023-03-19T06:26:02.454Z,1020.66
2023-03-19T06:28:30.660Z,1020.73
2023-03-19T06:30:57.492Z,1020.71
2023-03-19T06:33:24.434Z,1020.68
2023-03-19T06:35:51.324Z,1020.61
2023-03-19T06:38:18.096Z,1020.64
2023-03-19T06:40:45.165Z,1020.63
2023-03-19T06:43:11.979Z,1020.51
2023-03-19T06:45:40.473Z,1020.51
2023-03-19T06:48:07.432Z,1020.41
2023-03-19T06:50:34.749Z,1020.27
2023-03-19T06:53:02.114Z,1020.39
2023-03-19T06:55:28.873Z,1020.44
2023-03-19T06:57:55.637Z,1020.44
2023-03-19T07:00:22.897Z,1020.48
2023-03-19T07:02:51.297Z,1020.52
2023-03-19T07:05:18.322Z,1020.49
2023-03-19T07:07:45.195Z,1020.44
2023-03-19T07:10:12.001Z,1020.43
2023-03-19T07:12:39.717Z,1020.38
2023-03-19T07:15:07.770Z,1020.31
2023-03-19T07:17:34.603Z,1020.37
2023-03-19T07:20:02.953Z,1020.37
2023-03-19T07:22:29.942Z,1020.27
2023-03-19T07:24:56.744Z,1020.28
2023-03-19T07:27:23.612Z,1020.22
2023-03-19T07:29:50.421Z,1020.22
2023-03-19T07:32:17.621Z,1020.09
2023-03-19T07:34:44.396Z,1020.03
2023-03-19T07:37:12.584Z,1020.03
2023-03-19T07:39:41.073Z,1019.82
2023-03-19T07:42:08.065Z,1019.68
2023-03-19T07:44:36.128Z,1019.51
2023-03-19T07:47:02.948Z,1019.36
2023-03-19T07:49:29.728Z,1019.29
2023-03-19T07:51:56.436Z,1019.16
2023-03-19T07:54:24.735Z,1019.08
2023-03-19T07:56:51.475Z,1019.02
2023-03-19T07:59:18.326Z,1018.98
2023-03-19T08:01:45.092Z,1018.83
2023-03-19T08:04:11.861Z,1018.75
2023-03-19T08:06:38.678Z,1018.66
2023-03-19T08:09:05.513Z,1018.60
2023-03-19T08:11:33.753Z,1018.46
2023-03-19T08:14:00.528Z,1018.42
2023-03-19T08:16:27.477Z,1018.29
2023-03-19T08:18:54.313Z,1018.09
2023-03-19T08:21:21.245Z,1017.93
2023-03-19T08:23:48.084Z,1017.88
2023-03-19T08:26:15.490Z,1017.80
2023-03-19T08:28:43.816Z,1017.79
2023-03-19T08:31:13.077Z,1017.90
2023-03-19T08:33:40.575Z,1017.84
2023-03-19T08:36:09.121Z,1017.77
2023-03-19T08:38:36.532Z,1017.70
2023-03-19T08:41:03.713Z,1017.86
2023-03-19T08:43:30.787Z,1017.96
2023-03-19T08:45:59.207Z,1017.73
2023-03-19T08:48:26.180Z,1017.69
2023-03-19T08:50:53.906Z,1017.54
2023-03-19T08:53:20.682Z,1017.45
2023-03-19T08:55:52.327Z,1017.47
2023-03-19T08:58:19.165Z,1017.43
2023-03-19T09:00:46.053Z,1017.43
2023-03-19T09:03:14.725Z,1017.55
2023-03-19T09:05:41.617Z,1017.56
2023-03-19T09:08:08.818Z,1017.52
2023-03-19T09:10:35.984Z,1017.49
2023-03-19T09:13:03.119Z,1017.59
2023-03-19T09:15:30.177Z,1017.57
2023-03-19T09:17:57.295Z,1017.55
2023-03-19T09:20:25.470Z,1017.46
2023-03-19T09:22:52.282Z,1017.38
2023-03-19T09:25:19.301Z,1017.34
2023-03-19T09:27:46.149Z,1017.30
2023-03-19T09:30:13.790Z,1017.33
2023-03-19T09:32:40.617Z,1017.16
2023-03-19T09:35:08.385Z,1017.11
2023-03-19T09:37:36.557Z,1017.06
2023-03-19T09:40:04.120Z,1017.04
2023-03-19T09:42:45.538Z,1017.03
2023-03-19T09:45:15.454Z,1016.92
2023-03-19T09:47:43.649Z,1016.88
2023-03-19T09:50:16.666Z,1016.84
2023-03-19T09:52:47.232Z,1016.90
2023-03-19T09:55:28.075Z,1016.85
2023-03-19T09:57:57.405Z,1016.78
2023-03-19T10:00:27.891Z,1016.69
2023-03-19T10:03:03.686Z,1016.73
2023-03-19T10:05:42.137Z,1016.82
2023-03-19T10:08:28.530Z,1016.80
2023-03-19T10:11:05.870Z,1016.85
2023-03-19T10:13:46.047Z,1016.87
2023-03-19T10:16:17.181Z,1016.74
2023-03-19T10:18:49.052Z,1016.79
2023-03-19T10:21:23.261Z,1016.76
2023-03-19T10:23:57.454Z,1016.54
2023-03-19T10:26:28.255Z,1016.51
2023-03-19T10:29:03.022Z,1016.48
2023-03-19T10:31:37.487Z,1016.40
2023-03-19T10:34:19.462Z,1016.33
2023-03-19T10:36:46.518Z,1016.18
2023-03-19T10:39:16.773Z,1016.00
2023-03-19T10:41:50.754Z,1015.77
2023-03-19T10:44:28.159Z,1015.78
2023-03-19T10:46:58.268Z,1015.72
2023-03-19T10:49:25.345Z,1015.87
2023-03-19T10:51:52.244Z,1015.68
2023-03-19T10:54:22.193Z,1015.70
2023-03-19T10:56:50.090Z,1015.74
2023-03-19T10:59:26.544Z,1015.68
2023-03-19T11:01:58.072Z,1015.66
2023-03-19T11:04:25.998Z,1015.56
2023-03-19T11:06:54.887Z,1015.64
2023-03-19T11:09:28.629Z,1015.58
2023-03-19T11:11:58.737Z,1015.57
2023-03-19T11:14:31.911Z,1015.58
2023-03-19T11:17:04.573Z,1015.64
2023-03-19T11:19:33.724Z,1015.63
2023-03-19T11:22:12.814Z,1015.61
2023-03-19T11:24:48.461Z,1015.59
2023-03-19T11:27:15.245Z,1015.71
2023-03-19T11:29:44.320Z,1015.77
2023-03-19T11:32:22.743Z,1015.83
2023-03-19T11:34:54.217Z,1015.60
2023-03-19T11:37:31.542Z,1015.46
2023-03-19T11:40:10.414Z,1015.45
2023-03-19T11:42:50.676Z,1015.22
2023-03-19T11:45:28.844Z,1015.14
2023-03-19T11:48:07.004Z,1015.00
2023-03-19T11:50:40.232Z,1015.00
2023-03-19T11:53:19.876Z,1014.98
2023-03-19T11:55:56.870Z,1014.92
2023-03-19T11:58:49.893Z,1014.81
2023-03-19T12:01:30.882Z,1014.88
2023-03-19T12:04:19.729Z,1014.64
2023-03-19T12:06:56.693Z,1014.61
2023-03-19T12:09:33.477Z,1014.42
2023-03-19T12:12:10.402Z,1014.40
2023-03-19T12:14:49.106Z,1014.40
2023-03-19T12:17:30.187Z,1014.38
2023-03-19T12:20:23.563Z,1014.39
2023-03-19T12:23:04.278Z,1014.34
2023-03-19T12:25:43.719Z,1014.33
2023-03-19T12:28:18.743Z,1014.36
2023-03-19T12:30:57.912Z,1014.28
2023-03-19T12:33:38.888Z,1014.34
2023-03-19T12:36:13.161Z,1014.32
2023-03-19T12:38:43.775Z,1014.27
2023-03-19T12:41:13.508Z,1014.34
2023-03-19T12:43:49.907Z,1014.35
2023-03-19T12:46:23.273Z,1014.40
2023-03-19T12:48:53.945Z,1014.53
2023-03-19T12:51:26.450Z,1014.59
2023-03-19T12:53:59.996Z,1014.66
2023-03-19T12:56:32.887Z,1014.80
2023-03-19T12:59:06.012Z,1014.96
2023-03-19T13:01:35.334Z,1014.92
2023-03-19T13:04:08.482Z,1014.95
2023-03-19T13:06:37.734Z,1014.97
2023-03-19T13:09:11.893Z,1014.92
2023-03-19T13:11:44.131Z,1014.98
2023-03-19T13:14:19.725Z,1014.90
2023-03-19T13:16:54.261Z,1014.96
2023-03-19T13:19:28.929Z,1014.92
2023-03-19T13:22:00.545Z,1014.96
2023-03-19T13:24:29.245Z,1014.97
2023-03-19T13:26:59.360Z,1014.96
2023-03-19T13:29:29.670Z,1014.99
2023-03-19T13:32:01.242Z,1014.97
2023-03-19T13:34:31.163Z,1015.04
2023-03-19T13:37:04.335Z,1015.06
2023-03-19T13:39:33.413Z,1015.04
2023-03-19T13:42:21.820Z,1015.05
2023-03-19T13:44:51.910Z,1014.95
2023-03-19T13:47:43.095Z,1015.13
2023-03-19T13:50:24.529Z,1015.09
2023-03-19T13:52:53.545Z,1015.03
2023-03-19T13:55:45.229Z,1015.10
2023-03-19T13:58:20.219Z,1015.14
2023-03-19T14:00:57.006Z,1015.06
2023-03-19T14:03:25.553Z,1014.98
2023-03-19T14:05:54.973Z,1014.98
2023-03-19T14:08:24.659Z,1014.95
2023-03-19T14:10:53.999Z,1014.90
2023-03-19T14:13:29.226Z,1014.89
2023-03-19T14:16:07.378Z,1015.00
2023-03-19T14:18:40.684Z,1014.98
2023-03-19T14:21:12.995Z,1014.85
2023-03-19T14:23:44.068Z,1015.05
2023-03-19T14:26:16.739Z,1014.92
2023-03-19T14:28:52.229Z,1014.96
2023-03-19T14:31:25.421Z,1015.04
2023-03-19T14:33:59.546Z,1014.98
2023-03-19T14:36:26.823Z,1015.06
2023-03-19T14:38:57.884Z,1015.04
2023-03-19T14:41:28.634Z,1015.02
2023-03-19T14:44:13.458Z,1014.96
2023-03-19T14:46:53.728Z,1014.78
2023-03-19T14:49:49.905Z,1014.77
2023-03-19T14:52:20.718Z,1014.75
2023-03-19T14:54:50.871Z,1014.73
2023-03-19T14:57:19.244Z,1014.72
2023-03-19T14:59:46.217Z,1014.70
2023-03-19T15:02:25.554Z,1014.79
2023-03-19T15:04:54.977Z,1014.87
2023-03-19T15:07:29.303Z,1014.82
2023-03-19T15:09:55.936Z,1014.88
2023-03-19T15:12:53.897Z,1014.87
2023-03-19T15:15:57.904Z,1014.87
2023-03-19T15:18:26.750Z,1014.89
2023-03-19T15:20:55.485Z,1014.90
2023-03-19T15:23:27.731Z,1014.94
2023-03-19T15:25:57.476Z,1014.97
2023-03-19T15:28:26.160Z,1015.13
2023-03-19T15:31:06.362Z,1015.17
2023-03-19T15:33:46.097Z,1015.29
2023-03-19T15:36:17.825Z,1015.29
2023-03-19T15:38:49.214Z,1015.34
2023-03-19T15:41:17.212Z,1015.45
2023-03-19T15:43:44.994Z,1015.58
2023-03-19T15:46:15.056Z,1015.51
2023-03-19T15:48:47.850Z,1015.73
2023-03-19T15:51:16.890Z,1015.75
2023-03-19T15:53:45.017Z,1015.86
2023-03-19T15:56:14.113Z,1015.81
2023-03-19T15:58:44.788Z,1015.89
2023-03-19T16:01:12.509Z,1015.96
2023-03-19T16:03:41.518Z,1016.04
2023-03-19T16:06:17.228Z,1016.06
2023-03-19T16:08:48.451Z,1016.09
2023-03-19T16:11:26.479Z,1016.17
2023-03-19T16:13:57.177Z,1016.09
2023-03-19T16:16:25.149Z,1016.16
2023-03-19T16:18:53.923Z,1016.20
2023-03-19T16:21:24.436Z,1016.30
2023-03-19T16:23:55.839Z,1016.37
2023-03-19T16:26:25.436Z,1016.54
2023-03-19T16:29:03.364Z,1016.66
2023-03-19T16:31:31.079Z,1016.63
2023-03-19T16:33:58.158Z,1016.78
2023-03-19T16:36:32.058Z,1016.87
2023-03-19T16:39:20.168Z,1016.97
2023-03-19T16:42:14.349Z,1016.95
2023-03-19T16:44:46.661Z,1017.03
2023-03-19T16:47:15.156Z,1017.10
2023-03-19T16:49:41.975Z,1017.33
2023-03-19T16:52:14.946Z,1017.40
2023-03-19T16:54:43.363Z,1017.43
2023-03-19T16:57:12.666Z,1017.54
2023-03-19T16:59:39.775Z,1017.62
2023-03-19T17:02:10.993Z,1017.63
2023-03-19T17:04:37.765Z,1017.73
2023-03-19T17:07:04.656Z,1017.87
2023-03-19T17:09:33.039Z,1017.92
2023-03-19T17:12:00.372Z,1018.09
2023-03-19T17:14:27.658Z,1018.04
2023-03-19T17:16:55.861Z,1018.13
2023-03-19T17:19:24.584Z,1018.28
2023-03-19T17:21:52.935Z,1018.39
2023-03-19T17:24:25.146Z,1018.39
2023-03-19T17:26:57.432Z,1018.44
2023-03-19T17:29:24.436Z,1018.49
2023-03-19T17:31:53.276Z,1018.56
2023-03-19T17:34:22.023Z,1018.66
2023-03-19T17:36:51.080Z,1018.65
2023-03-19T17:39:18.055Z,1018.77
2023-03-19T17:41:45.444Z,1018.86
2023-03-19T17:44:14.449Z,1018.86
2023-03-19T17:46:44.204Z,1018.96
2023-03-19T17:49:18.742Z,1019.05
2023-03-19T17:51:45.871Z,1019.07
2023-03-19T17:54:13.523Z,1019.13
2023-03-19T17:56:41.331Z,1019.15
2023-03-19T17:59:08.200Z,1019.30
2023-03-19T18:01:37.781Z,1019.40
2023-03-19T18:04:05.137Z,1019.36
2023-03-19T18:06:35.383Z,1019.40
2023-03-19T18:09:02.595Z,1019.48
2023-03-19T18:11:29.367Z,1019.62
2023-03-19T18:13:56.101Z,1019.63
2023-03-19T18:16:26.034Z,1019.76
2023-03-19T18:18:55.738Z,1019.71
2023-03-19T18:21:22.622Z,1019.77
2023-03-19T18:23:49.544Z,1019.86
2023-03-19T18:26:16.796Z,1019.83
2023-03-19T18:28:44.504Z,1019.79
2023-03-19T18:31:15.598Z,1019.80
2023-03-19T18:33:47.531Z,1019.84
2023-03-19T18:36:18.594Z,1019.80
2023-03-19T18:38:45.355Z,1019.78
2023-03-19T18:41:17.639Z,1019.87
2023-03-19T18:43:44.905Z,1019.90
2023-03-19T18:46:19.939Z,1019.93
2023-03-19T18:48:47.426Z,1020.02
2023-03-19T18:51:14.250Z,1019.99
2023-03-19T18:53:42.393Z,1019.93
2023-03-19T18:56:20.386Z,1019.99
2023-03-19T18:58:48.166Z,1020.05
2023-03-19T19:01:15.978Z,1020.03
2023-03-19T19:03:43.004Z,1020.00
2023-03-19T19:06:12.760Z,1020.04
2023-03-19T19:08:39.928Z,1020.12
2023-03-19T19:11:08.360Z,1020.11
2023-03-19T19:13:46.221Z,1020.14
2023-03-19T19:16:19.069Z,1020.08
2023-03-19T19:18:46.120Z,1020.12
2023-03-19T19:21:13.620Z,1020.11
2023-03-19T19:23:40.873Z,1020.17
2023-03-19T19:26:18.226Z,1020.12
2023-03-19T19:28:45.387Z,1020.07
2023-03-19T19:31:23.002Z,1020.16
2023-03-19T19:33:50.195Z,1020.15
2023-03-19T19:36:17.332Z,1020.14
2023-03-19T19:38:45.557Z,1020.23
2023-03-19T19:41:16.389Z,1020.26
2023-03-19T19:43:45.303Z,1020.23
2023-03-19T19:46:13.394Z,1020.24
2023-03-19T19:48:41.577Z,1020.32
2023-03-19T19:51:08.461Z,1020.32
2023-03-19T19:53:35.248Z,1020.42
2023-03-19T19:56:15.322Z,1020.42
2023-03-19T19:58:43.318Z,1020.48
2023-03-19T20:01:15.564Z,1020.47
2023-03-19T20:03:48.697Z,1020.59
2023-03-19T20:06:16.893Z,1020.53
2023-03-19T20:08:45.872Z,1020.57
2023-03-19T20:11:19.600Z,1020.60
2023-03-19T20:13:48.008Z,1020.57
2023-03-19T20:16:15.635Z,1020.57
2023-03-19T20:18:42.602Z,1020.49
2023-03-19T20:21:09.726Z,1020.51
2023-03-19T20:23:36.484Z,1020.62
2023-03-19T20:26:03.364Z,1020.64
2023-03-19T20:28:33.930Z,1020.80
2023-03-19T20:31:02.617Z,1020.77
2023-03-19T20:33:29.506Z,1020.79
2023-03-19T20:35:56.400Z,1020.84
2023-03-19T20:38:23.300Z,1020.79
2023-03-19T20:40:51.727Z,1020.90
2023-03-19T20:43:28.100Z,1020.86
2023-03-19T20:45:57.856Z,1020.80
2023-03-19T20:48:26.001Z,1020.90
2023-03-19T20:50:53.238Z,1020.94
2023-03-19T20:53:20.510Z,1020.98
2023-03-19T20:55:47.964Z,1020.98
2023-03-19T20:58:19.545Z,1021.02
2023-03-19T21:00:46.516Z,1021.05
2023-03-19T21:03:19.369Z,1021.11
2023-03-19T21:05:46.934Z,1021.14
2023-03-19T21:08:17.083Z,1021.10
2023-03-19T21:10:44.636Z,1021.12
2023-03-19T21:13:13.596Z,1021.16
2023-03-19T21:15:40.500Z,1021.19
2023-03-19T21:18:07.248Z,1021.18
2023-03-19T21:20:37.053Z,1021.21
2023-03-19T21:23:12.415Z,1021.26
2023-03-19T21:25:39.903Z,1021.43
2023-03-19T21:28:13.514Z,1021.36
2023-03-19T21:30:42.928Z,1021.50
2023-03-19T21:33:20.888Z,1021.41
2023-03-19T21:35:49.310Z,1021.46
2023-03-19T21:38:16.144Z,1021.45
2023-03-19T21:40:43.398Z,1021.46
2023-03-19T21:43:17.421Z,1021.47
2023-03-19T21:45:46.143Z,1021.38
2023-03-19T21:48:26.184Z,1021.31
2023-03-19T21:50:56.850Z,1021.38
2023-03-19T21:53:24.875Z,1021.43
2023-03-19T21:55:53.363Z,1021.49
2023-03-19T21:58:26.561Z,1021.42
2023-03-19T22:00:53.314Z,1021.38
2023-03-19T22:03:21.172Z,1021.50
2023-03-19T22:05:49.970Z,1021.44
2023-03-19T22:08:18.454Z,1021.49
2023-03-19T22:10:45.321Z,1021.59
2023-03-19T22:13:18.961Z,1021.64
2023-03-19T22:15:45.785Z,1021.56
2023-03-19T22:18:14.500Z,1021.48
2023-03-19T22:20:41.988Z,1021.41
2023-03-19T22:23:09.323Z,1021.36
2023-03-19T22:25:41.849Z,1021.41
2023-03-19T22:28:16.424Z,1021.39
2023-03-19T22:30:43.185Z,1021.31
2023-03-19T22:33:14.833Z,1021.37
2023-03-19T22:35:42.055Z,1021.38
2023-03-19T22:38:08.875Z,1021.59
2023-03-19T22:40:38.355Z,1021.52
2023-03-19T22:43:15.633Z,1021.56
2023-03-19T22:45:43.247Z,1021.59
2023-03-19T22:48:14.563Z,1021.59
2023-03-19T22:50:41.679Z,1021.53
2023-03-19T22:53:20.120Z,1021.60
2023-03-19T22:55:48.447Z,1021.54
2023-03-19T22:58:15.772Z,1021.60
2023-03-19T23:00:42.845Z,1021.62
2023-03-19T23:03:14.411Z,1021.76
2023-03-19T23:05:45.213Z,1021.79
2023-03-19T23:08:16.460Z,1021.74
2023-03-19T23:10:44.368Z,1021.73
2023-03-19T23:13:12.656Z,1021.92
2023-03-19T23:15:39.568Z,1021.89
2023-03-19T23:18:14.606Z,1021.77
2023-03-19T23:20:41.437Z,1021.79
2023-03-19T23:23:11.988Z,1021.76
2023-03-19T23:25:38.767Z,1021.79
2023-03-19T23:28:05.888Z,1021.81
2023-03-19T23:30:34.057Z,1021.71
2023-03-19T23:33:02.681Z,1021.84
2023-03-19T23:35:30.709Z,1021.84
2023-03-19T23:37:57.811Z,1021.82
2023-03-19T23:40:29.096Z,1021.78
2023-03-19T23:42:57.441Z,1021.84
2023-03-19T23:45:33.396Z,1021.83
2023-03-19T23:48:03.893Z,1021.84
2023-03-19T23:50:31.968Z,1021.89
2023-03-19T23:52:59.920Z,1021.80
2023-03-19T23:55:27.531Z,1021.83
2023-03-19T23:57:54.728Z,1021.80
